Time;durP1;ratioP1;P1;durP2;ratioP2;P2;SDS_P1;SDS_P2;PMS_P1;PMS_P2;Temp;Humidity;BMP_temperature;BMP_pressure;BME280_temperature;BME280_humidity;BME280_pressure;Samples;Min_cycle;Max_cycle;Signal;HPM_P1;HPM_P2
2021/12/10 00:00:40;;;;;;;3.17;2.87;;;;;;;1.90;81.90;98279.03;4992896;28;20243;-82
2021/12/10 00:03:21;;;;;;;3.17;2.73;;;;;;;1.78;82.06;98274.28;4984745;28;20232;-83
2021/12/10 00:05:55;;;;;;;2.77;2.57;;;;;;;1.76;81.94;98271.06;4991972;28;20240;-82
2021/12/10 00:08:26;;;;;;;2.60;2.40;;;;;;;1.73;82.03;98270.59;4959238;28;20232;-84
2021/12/10 00:10:57;;;;;;;3.27;2.80;;;;;;;1.57;81.80;98274.41;4974406;28;20295;-83
2021/12/10 00:13:26;;;;;;;2.50;2.30;;;;;;;1.60;81.96;98283.75;4958927;28;20232;-83
2021/12/10 00:15:55;;;;;;;2.53;2.23;;;;;;;1.66;82.11;98283.78;4958980;28;20256;-83
2021/12/10 00:18:31;;;;;;;2.50;2.30;;;;;;;1.61;82.28;98280.09;4959887;28;20216;-84
2021/12/10 00:21:01;;;;;;;2.87;2.67;;;;;;;1.57;81.98;98292.06;4975724;28;20299;-83
2021/12/10 00:23:30;;;;;;;2.63;2.43;;;;;;;1.42;82.33;98289.53;4959282;28;20582;-83
2021/12/10 00:25:57;;;;;;;3.07;2.77;;;;;;;1.28;82.72;98286.00;4958653;28;20236;-84
2021/12/10 00:28:29;;;;;;;2.70;2.40;;;;;;;1.23;82.82;98274.38;4974318;28;20231;-84
2021/12/10 00:31:19;;;;;;;2.67;2.47;;;;;;;1.27;83.58;98288.81;4974283;28;20307;-83
2021/12/10 00:34:15;;;;;;;3.10;2.67;;;;;;;1.22;83.18;98284.13;4974259;28;20239;-83
2021/12/10 00:36:43;;;;;;;3.13;2.87;;;;;;;1.05;83.53;98272.25;4960317;28;20250;-83
2021/12/10 00:39:14;;;;;;;2.47;2.27;;;;;;;1.04;83.12;98251.31;4974450;28;20243;-83
2021/12/10 00:41:46;;;;;;;2.73;2.50;;;;;;;1.07;83.35;98269.44;4964724;23;20239;-83
2021/12/10 00:44:14;;;;;;;3.00;2.70;;;;;;;0.85;83.37;98261.53;4917814;29;20257;-83
2021/12/10 00:46:44;;;;;;;2.93;2.63;;;;;;;0.91;84.35;98285.50;4920073;29;20225;-83
2021/12/10 00:49:12;;;;;;;3.00;2.80;;;;;;;0.83;83.98;98283.84;4953548;29;20235;-82
2021/12/10 00:51:47;;;;;;;2.90;2.70;;;;;;;0.78;84.09;98275.69;4937957;29;20241;-83
2021/12/10 00:54:15;;;;;;;3.20;2.90;;;;;;;0.65;84.62;98265.03;4934687;29;20277;-83
2021/12/10 00:56:46;;;;;;;3.03;2.73;;;;;;;0.59;84.61;98263.97;4943237;23;20293;-83
2021/12/10 00:59:14;;;;;;;3.40;3.10;;;;;;;0.62;84.38;98274.13;4953692;29;20224;-83
2021/12/10 01:01:43;;;;;;;3.03;2.73;;;;;;;0.57;84.72;98268.59;4936512;29;20214;-83
2021/12/10 01:04:20;;;;;;;3.17;2.87;;;;;;;0.53;85.32;98267.34;4940160;29;20237;-84
2021/12/10 01:06:50;;;;;;;3.60;3.07;;;;;;;0.45;85.02;98270.13;4940762;29;20305;-83
2021/12/10 01:09:32;;;;;;;3.33;3.03;;;;;;;0.33;85.08;98256.59;4940036;29;20241;-84
2021/12/10 01:12:22;;;;;;;3.50;3.20;;;;;;;0.31;84.81;98271.81;4938477;29;20245;-84
2021/12/10 01:28:39;;;;;;;3.60;3.30;;;;;;;-0.20;85.31;98257.06;4937953;29;20245;-82
2021/12/10 01:31:11;;;;;;;3.10;2.80;;;;;;;-0.25;85.86;98247.09;4920990;23;20258;-83
2021/12/10 01:33:42;;;;;;;3.27;2.97;;;;;;;-0.19;86.22;98243.72;4885822;29;20219;-84
2021/12/10 01:36:12;;;;;;;3.40;3.10;;;;;;;-0.01;85.56;98259.91;4931595;29;20243;-83
2021/12/10 01:38:42;;;;;;;3.80;3.50;;;;;;;-0.15;85.91;98233.63;4901110;29;20224;-83
2021/12/10 01:41:15;;;;;;;3.40;3.10;;;;;;;0.15;85.38;98250.13;4904125;29;20238;-84
2021/12/10 01:43:47;;;;;;;3.20;2.83;;;;;;;0.13;85.95;98241.63;4907685;29;20223;-84
2021/12/10 01:46:19;;;;;;;3.53;3.23;;;;;;;0.39;86.07;98265.59;4901498;29;20215;-84
2021/12/10 01:49:04;;;;;;;3.07;2.83;;;;;;;0.18;85.92;98234.81;4901411;29;20219;-84
2021/12/10 01:51:38;;;;;;;3.03;2.73;;;;;;;0.28;85.87;98248.44;4901321;29;20283;-83
2021/12/10 01:54:13;;;;;;;3.37;3.07;;;;;;;0.40;86.11;98248.78;4900097;29;20240;-84
2021/12/10 01:56:42;;;;;;;3.47;3.17;;;;;;;0.46;85.67;98263.03;4942298;23;20240;-84
2021/12/10 01:59:13;;;;;;;3.63;3.33;;;;;;;0.27;85.80;98243.38;4937980;29;20248;-83
2021/12/10 02:01:51;;;;;;;3.70;3.23;;;;;;;0.26;85.80;98263.66;4949640;29;20240;-84
2021/12/10 02:04:25;;;;;;;3.70;3.40;;;;;;;-0.03;86.34;98224.22;4938267;29;20253;-83
2021/12/10 02:06:53;;;;;;;3.50;3.20;;;;;;;-0.07;85.91;98225.59;4938114;29;20226;-84
2021/12/10 02:09:23;;;;;;;3.77;3.47;;;;;;;-0.13;86.67;98240.31;4939452;29;20248;-84
2021/12/10 02:11:55;;;;;;;3.87;3.50;;;;;;;-0.21;86.29;98224.66;4939255;29;20220;-84
2021/12/10 02:14:45;;;;;;;3.97;3.57;;;;;;;-0.03;86.29;98267.19;4937522;29;20249;-84
2021/12/10 02:17:19;;;;;;;3.67;3.37;;;;;;;-0.15;86.68;98239.72;4940545;29;20214;-84
2021/12/10 02:19:54;;;;;;;3.80;3.50;;;;;;;-0.31;86.43;98228.56;4939670;29;20371;-84
2021/12/10 02:22:23;;;;;;;3.97;3.50;;;;;;;-0.19;86.34;98253.44;4944978;23;20213;-84
2021/12/10 02:24:51;;;;;;;4.93;4.53;;;;;;;-0.34;86.68;98224.50;4931800;23;20250;-84
2021/12/10 02:27:21;;;;;;;3.70;3.40;;;;;;;-0.26;86.54;98242.81;4944941;28;20217;-84
2021/12/10 02:29:54;;;;;;;4.33;3.93;;;;;;;-0.26;86.13;98244.63;4959873;23;20249;-84
2021/12/10 02:32:32;;;;;;;3.93;3.63;;;;;;;-0.10;86.71;98266.31;4945822;28;20196;-84
2021/12/10 02:35:04;;;;;;;4.53;4.13;;;;;;;-0.17;86.50;98256.69;5050497;23;20241;-84
2021/12/10 02:37:52;;;;;;;5.00;3.97;;;;;;;-0.26;87.04;98249.88;4946740;29;20224;-84
2021/12/10 02:40:39;;;;;;;4.30;3.90;;;;;;;-0.26;86.67;98240.19;4946311;29;20244;-83
2021/12/10 02:43:25;;;;;;;4.53;3.87;;;;;;;-0.27;86.70;98241.16;4944800;29;20276;-84
2021/12/10 02:46:00;;;;;;;4.00;3.60;;;;;;;-0.06;86.79;98250.94;4960527;28;20166;-83
2021/12/10 02:48:43;;;;;;;4.43;4.03;;;;;;;-0.23;86.99;98220.56;4919664;29;20233;-84
2021/12/10 02:51:25;;;;;;;4.90;3.80;;;;;;;-0.28;87.03;98215.84;4944969;29;20161;-84
2021/12/10 02:54:22;;;;;;;6.10;4.13;;;;;;;-0.16;86.87;98235.44;4982882;23;21145;-83
2021/12/10 02:57:23;;;;;;;3.90;3.60;;;;;;;-0.12;86.60;98238.50;4961025;28;20209;-84
2021/12/10 03:00:02;;;;;;;4.57;3.90;;;;;;;-0.30;87.13;98223.13;4945351;28;20206;-84
2021/12/10 03:02:39;;;;;;;5.13;4.00;;;;;;;-0.25;86.81;98233.91;4944187;28;20185;-83
2021/12/10 03:05:22;;;;;;;5.10;4.50;;;;;;;-0.22;86.89;98245.88;5053912;23;20278;-84
2021/12/10 03:08:07;;;;;;;4.80;4.03;;;;;;;-0.23;86.91;98246.88;4962760;29;20207;-84
2021/12/10 03:10:46;;;;;;;4.37;3.93;;;;;;;-0.19;87.28;98258.69;4976946;28;20278;-83
2021/12/10 03:13:16;;;;;;;4.17;3.73;;;;;;;-0.44;87.03;98226.59;4944128;29;20200;-83
2021/12/10 03:15:47;;;;;;;4.63;3.90;;;;;;;-0.44;87.12;98221.34;4966680;28;20313;-83
2021/12/10 03:18:19;;;;;;;5.20;4.70;;;;;;;-0.29;87.25;98248.44;4936265;29;20269;-84
2021/12/10 03:20:49;;;;;;;4.97;4.57;;;;;;;-0.42;87.15;98231.69;4962078;28;20212;-84
2021/12/10 03:23:49;;;;;;;5.27;4.77;;;;;;;-0.26;87.38;98248.06;4933952;29;20209;-82
2021/12/10 03:26:22;;;;;;;5.60;5.00;;;;;;;-0.43;86.90;98230.88;4912286;29;20250;-84
2021/12/10 03:28:57;;;;;;;5.30;4.80;;;;;;;-0.56;87.30;98214.94;4902423;29;20214;-84
2021/12/10 03:31:31;;;;;;;7.33;5.43;;;;;;;-0.38;86.46;98231.13;4901308;29;20206;-83
2021/12/10 03:34:32;;;;;;;6.30;5.70;;;;;;;-0.61;87.01;98212.84;4895621;29;20259;-84
2021/12/10 03:37:33;;;;;;;6.43;5.80;;;;;;;-0.45;86.66;98227.59;5069876;23;20225;-84
2021/12/10 03:40:42;;;;;;;5.97;5.37;;;;;;;-0.43;86.82;98227.41;4958720;29;20225;-84
2021/12/10 03:44:11;;;;;;;6.17;5.50;;;;;;;-0.64;86.04;98218.44;4959680;29;20245;-84
2021/12/10 03:47:05;;;;;;;7.13;5.70;;;;;;;-0.65;86.47;98211.56;4955391;28;20247;-84
2021/12/10 03:50:20;;;;;;;6.53;5.80;;;;;;;-0.58;86.20;98215.09;5158902;23;20230;-84
2021/12/10 03:53:29;;;;;;;6.60;5.37;;;;;;;-0.66;86.51;98209.94;4940247;29;20320;-84
2021/12/10 03:56:28;;;;;;;6.33;5.70;;;;;;;-0.69;86.02;98199.75;5058187;23;20250;-83
2021/12/10 03:59:39;;;;;;;6.17;5.57;;;;;;;-0.71;85.86;98195.69;4930126;29;20194;-83
2021/12/10 04:05:47;;;;;;;6.70;6.00;;;;;;;-0.61;85.79;98212.03;5178632;23;20301;-84
2021/12/10 04:08:51;;;;;;;5.47;4.57;;;;;;;-0.53;85.57;98217.19;4943767;29;20216;-83
2021/12/10 04:15:28;;;;;;;5.70;4.63;;;;;;;-0.69;85.26;98199.75;4920576;29;20193;-84
2021/12/10 04:21:47;;;;;;;6.23;5.10;;;;;;;-0.62;84.66;98197.22;5273121;23;20224;-85
2021/12/10 04:24:52;;;;;;;5.50;5.00;;;;;;;-0.45;84.52;98223.16;4960238;28;20185;-84
2021/12/10 04:28:10;;;;;;;6.30;4.73;;;;;;;-0.60;84.67;98185.50;4959301;28;20254;-85
2021/12/10 04:40:05;;;;;;;6.53;5.57;;;;;;;-0.47;84.52;98190.13;4963884;28;20170;-84
2021/12/10 04:43:35;;;;;;;6.20;5.40;;;;;;;-0.33;84.92;98212.16;4957953;28;20217;-85
2021/12/10 04:51:59;;;;;;;7.00;6.00;;;;;;;-0.67;84.60;98183.81;4962808;28;20217;-85
2021/12/10 04:56:03;;;;;;;7.53;5.87;;;;;;;-0.56;83.92;98204.41;5468933;23;20301;-85
2021/12/10 04:59:30;;;;;;;8.23;6.30;;;;;;;-0.64;84.00;98217.63;4927316;28;20236;-84
2021/12/10 05:02:37;;;;;;;7.83;5.60;;;;;;;-0.95;84.14;98178.38;4948580;28;20221;-84
2021/12/10 05:08:34;;;;;;;8.30;6.07;;;;;;;-1.03;83.58;98179.31;4946494;23;20216;-84
2021/12/10 05:15:21;;;;;;;8.97;6.73;;;;;;;-1.11;83.20;98184.63;5042153;23;20233;-84
2021/12/10 05:18:13;;;;;;;8.83;6.27;;;;;;;-1.04;83.24;98190.81;4942239;29;20252;-84
2021/12/10 05:21:15;;;;;;;10.57;6.67;;;;;;;-1.01;82.74;98200.13;4913292;29;20194;-83
2021/12/10 05:27:27;;;;;;;8.23;6.17;;;;;;;-1.36;82.65;98165.69;4917703;28;20245;-84
2021/12/10 05:30:35;;;;;;;9.17;6.37;;;;;;;-1.15;83.25;98207.03;4942753;29;20185;-84
2021/12/10 05:36:30;;;;;;;18.07;14.93;;;;;;;-1.17;82.60;98211.66;4960458;28;20232;-84
2021/12/10 05:39:46;;;;;;;13.63;11.97;;;;;;;-1.19;82.85;98189.16;4952764;29;20221;-84
2021/12/10 05:42:18;;;;;;;10.07;7.90;;;;;;;-1.20;82.75;98185.72;4962495;28;20198;-84
